sensor_id;sensor_type;location;lat;lon;timestamp;P1;durP1;ratioP1;P2;durP2;ratioP2
22205;SDS011;11272;50.104;8.754;2022-10-16T00:00:37;4.73;;;3.50;;
22205;SDS011;11272;50.104;8.754;2022-10-16T00:03:04;6.50;;;3.20;;
22205;SDS011;11272;50.104;8.754;2022-10-16T00:05:30;7.17;;;3.30;;
22205;SDS011;11272;50.104;8.754;2022-10-16T00:07:55;8.17;;;3.33;;
22205;SDS011;11272;50.104;8.754;2022-10-16T00:10:21;6.83;;;2.97;;
22205;SDS011;11272;50.104;8.754;2022-10-16T00:12:47;5.43;;;3.20;;
22205;SDS011;11272;50.104;8.754;2022-10-16T00:15:12;5.87;;;3.07;;
22205;SDS011;11272;50.104;8.754;2022-10-16T00:17:38;6.57;;;3.10;;
22205;SDS011;11272;50.104;8.754;2022-10-16T00:47:09;5.33;;;2.47;;
22205;SDS011;11272;50.104;8.754;2022-10-16T00:49:37;6.40;;;2.67;;
22205;SDS011;11272;50.104;8.754;2022-10-16T00:52:04;4.30;;;2.17;;
22205;SDS011;11272;50.104;8.754;2022-10-16T00:54:31;4.03;;;2.13;;
22205;SDS011;11272;50.104;8.754;2022-10-16T00:56:58;3.83;;;2.60;;
22205;SDS011;11272;50.104;8.754;2022-10-16T00:59:27;4.40;;;2.50;;
22205;SDS011;11272;50.104;8.754;2022-10-16T01:01:55;5.37;;;2.17;;
22205;SDS011;11272;50.104;8.754;2022-10-16T01:04:22;5.63;;;1.93;;
22205;SDS011;11272;50.104;8.754;2022-10-16T01:15:42;4.90;;;2.10;;
22205;SDS011;11272;50.104;8.754;2022-10-16T01:21:38;5.00;;;1.97;;
22205;SDS011;11272;50.104;8.754;2022-10-16T01:24:27;3.97;;;1.57;;
22205;SDS011;11272;50.104;8.754;2022-10-16T01:32:13;3.50;;;1.53;;
22205;SDS011;11272;50.104;8.754;2022-10-16T01:34:42;3.30;;;1.70;;
22205;SDS011;11272;50.104;8.754;2022-10-16T01:37:15;2.80;;;1.60;;
22205;SDS011;11272;50.104;8.754;2022-10-16T01:39:46;10.23;;;1.60;;
22205;SDS011;11272;50.104;8.754;2022-10-16T01:42:20;6.57;;;1.50;;
22205;SDS011;11272;50.104;8.754;2022-10-16T01:44:49;2.27;;;1.50;;
22205;SDS011;11272;50.104;8.754;2022-10-16T01:47:17;2.57;;;1.80;;
22205;SDS011;11272;50.104;8.754;2022-10-16T01:49:44;6.80;;;1.83;;
22205;SDS011;11272;50.104;8.754;2022-10-16T01:52:12;3.87;;;1.63;;
22205;SDS011;11272;50.104;8.754;2022-10-16T01:54:43;5.97;;;1.67;;
22205;SDS011;11272;50.104;8.754;2022-10-16T01:57:11;2.40;;;1.43;;
22205;SDS011;11272;50.104;8.754;2022-10-16T01:59:43;2.70;;;1.80;;
22205;SDS011;11272;50.104;8.754;2022-10-16T02:02:13;2.77;;;1.60;;
22205;SDS011;11272;50.104;8.754;2022-10-16T02:04:43;3.50;;;1.57;;
22205;SDS011;11272;50.104;8.754;2022-10-16T02:07:11;2.50;;;1.40;;
22205;SDS011;11272;50.104;8.754;2022-10-16T02:09:37;4.60;;;1.30;;
22205;SDS011;11272;50.104;8.754;2022-10-16T02:12:06;5.43;;;1.43;;
22205;SDS011;11272;50.104;8.754;2022-10-16T02:17:21;2.50;;;1.47;;
22205;SDS011;11272;50.104;8.754;2022-10-16T02:19:47;2.13;;;1.20;;
22205;SDS011;11272;50.104;8.754;2022-10-16T02:22:17;3.00;;;1.60;;
22205;SDS011;11272;50.104;8.754;2022-10-16T02:32:53;1.63;;;1.17;;
22205;SDS011;11272;50.104;8.754;2022-10-16T02:35:21;2.90;;;1.40;;
22205;SDS011;11272;50.104;8.754;2022-10-16T02:37:50;2.93;;;1.20;;
22205;SDS011;11272;50.104;8.754;2022-10-16T02:40:17;2.03;;;1.00;;
22205;SDS011;11272;50.104;8.754;2022-10-16T02:42:43;1.30;;;1.13;;
22205;SDS011;11272;50.104;8.754;2022-10-16T02:45:10;2.37;;;1.03;;
22205;SDS011;11272;50.104;8.754;2022-10-16T02:47:36;3.57;;;1.20;;
22205;SDS011;11272;50.104;8.754;2022-10-16T02:50:02;3.07;;;1.23;;
22205;SDS011;11272;50.104;8.754;2022-10-16T02:52:28;2.47;;;1.00;;
22205;SDS011;11272;50.104;8.754;2022-10-16T02:54:53;3.73;;;0.93;;
22205;SDS011;11272;50.104;8.754;2022-10-16T02:57:20;2.40;;;1.00;;
22205;SDS011;11272;50.104;8.754;2022-10-16T02:59:45;0.77;;;0.77;;
22205;SDS011;11272;50.104;8.754;2022-10-16T03:02:11;1.03;;;0.93;;
22205;SDS011;11272;50.104;8.754;2022-10-16T03:04:36;1.83;;;1.07;;
22205;SDS011;11272;50.104;8.754;2022-10-16T03:07:02;1.20;;;1.10;;
22205;SDS011;11272;50.104;8.754;2022-10-16T03:09:28;2.27;;;0.90;;
22205;SDS011;11272;50.104;8.754;2022-10-16T03:11:54;3.40;;;1.17;;
22205;SDS011;11272;50.104;8.754;2022-10-16T03:14:19;10.63;;;1.10;;
22205;SDS011;11272;50.104;8.754;2022-10-16T03:16:45;2.07;;;0.90;;
22205;SDS011;11272;50.104;8.754;2022-10-16T03:19:10;4.60;;;1.20;;
22205;SDS011;11272;50.104;8.754;2022-10-16T03:21:35;1.87;;;1.03;;
22205;SDS011;11272;50.104;8.754;2022-10-16T03:24:01;2.70;;;1.00;;
22205;SDS011;11272;50.104;8.754;2022-10-16T03:26:27;2.50;;;1.10;;
22205;SDS011;11272;50.104;8.754;2022-10-16T03:28:52;4.90;;;0.93;;
22205;SDS011;11272;50.104;8.754;2022-10-16T03:31:18;1.17;;;0.73;;
22205;SDS011;11272;50.104;8.754;2022-10-16T03:33:43;3.33;;;1.10;;
22205;SDS011;11272;50.104;8.754;2022-10-16T03:36:08;3.70;;;1.20;;
22205;SDS011;11272;50.104;8.754;2022-10-16T03:43:58;1.17;;;1.07;;
22205;SDS011;11272;50.104;8.754;2022-10-16T03:46:23;3.10;;;1.20;;
22205;SDS011;11272;50.104;8.754;2022-10-16T03:48:49;3.17;;;1.00;;
22205;SDS011;11272;50.104;8.754;2022-10-16T03:51:14;1.97;;;0.93;;
22205;SDS011;11272;50.104;8.754;2022-10-16T04:01:45;2.67;;;1.10;;
22205;SDS011;11272;50.104;8.754;2022-10-16T04:31:10;2.10;;;1.40;;
22205;SDS011;11272;50.104;8.754;2022-10-16T04:33:35;5.00;;;1.40;;
22205;SDS011;11272;50.104;8.754;2022-10-16T04:36:02;6.77;;;1.47;;
22205;SDS011;11272;50.104;8.754;2022-10-16T04:38:28;1.57;;;1.10;;
22205;SDS011;11272;50.104;8.754;2022-10-16T04:40:54;2.90;;;1.30;;
22205;SDS011;11272;50.104;8.754;2022-10-16T04:43:21;4.73;;;1.40;;
22205;SDS011;11272;50.104;8.754;2022-10-16T04:45:47;1.27;;;1.10;;
22205;SDS011;11272;50.104;8.754;2022-10-16T04:48:12;2.00;;;1.20;;
22205;SDS011;11272;50.104;8.754;2022-10-16T04:50:38;4.50;;;1.40;;
22205;SDS011;11272;50.104;8.754;2022-10-16T04:53:04;2.80;;;1.43;;
22205;SDS011;11272;50.104;8.754;2022-10-16T04:55:30;2.27;;;1.80;;
22205;SDS011;11272;50.104;8.754;2022-10-16T04:57:56;2.37;;;1.30;;
22205;SDS011;11272;50.104;8.754;2022-10-16T05:00:21;2.30;;;1.23;;
22205;SDS011;11272;50.104;8.754;2022-10-16T05:02:47;3.53;;;1.23;;
22205;SDS011;11272;50.104;8.754;2022-10-16T05:05:14;3.27;;;1.30;;
22205;SDS011;11272;50.104;8.754;2022-10-16T05:07:40;3.23;;;1.40;;
22205;SDS011;11272;50.104;8.754;2022-10-16T05:10:09;4.70;;;1.27;;
22205;SDS011;11272;50.104;8.754;2022-10-16T05:12:34;1.60;;;1.37;;
22205;SDS011;11272;50.104;8.754;2022-10-16T05:15:00;7.40;;;1.50;;
22205;SDS011;11272;50.104;8.754;2022-10-16T05:17:27;2.47;;;1.10;;
22205;SDS011;11272;50.104;8.754;2022-10-16T05:19:55;4.40;;;1.50;;
22205;SDS011;11272;50.104;8.754;2022-10-16T05:22:22;2.37;;;1.00;;
22205;SDS011;11272;50.104;8.754;2022-10-16T05:24:48;3.80;;;1.10;;
22205;SDS011;11272;50.104;8.754;2022-10-16T05:27:14;3.97;;;1.40;;
22205;SDS011;11272;50.104;8.754;2022-10-16T05:29:44;2.00;;;1.30;;
22205;SDS011;11272;50.104;8.754;2022-10-16T05:32:14;3.30;;;1.33;;
22205;SDS011;11272;50.104;8.754;2022-10-16T05:34:40;2.50;;;1.30;;
22205;SDS011;11272;50.104;8.754;2022-10-16T05:37:06;2.43;;;1.60;;
22205;SDS011;11272;50.104;8.754;2022-10-16T05:39:31;2.77;;;1.40;;
22205;SDS011;11272;50.104;8.754;2022-10-16T05:41:57;2.70;;;1.30;;
22205;SDS011;11272;50.104;8.754;2022-10-16T05:44:22;2.30;;;1.60;;
22205;SDS011;11272;50.104;8.754;2022-10-16T05:46:48;4.40;;;1.70;;
22205;SDS011;11272;50.104;8.754;2022-10-16T05:49:14;5.47;;;1.93;;
22205;SDS011;11272;50.104;8.754;2022-10-16T05:51:40;5.77;;;2.10;;
22205;SDS011;11272;50.104;8.754;2022-10-16T05:54:06;2.67;;;1.63;;
22205;SDS011;11272;50.104;8.754;2022-10-16T08:41:28;7.17;;;4.10;;
22205;SDS011;11272;50.104;8.754;2022-10-16T08:44:22;8.07;;;4.10;;
22205;SDS011;11272;50.104;8.754;2022-10-16T09:00:20;12.43;;;5.23;;
22205;SDS011;11272;50.104;8.754;2022-10-16T09:02:53;9.57;;;4.87;;
22205;SDS011;11272;50.104;8.754;2022-10-16T09:05:48;9.33;;;5.33;;
22205;SDS011;11272;50.104;8.754;2022-10-16T09:08:40;6.93;;;5.27;;
22205;SDS011;11272;50.104;8.754;2022-10-16T09:14:00;12.00;;;6.40;;
22205;SDS011;11272;50.104;8.754;2022-10-16T09:17:04;8.63;;;6.53;;
22205;SDS011;11272;50.104;8.754;2022-10-16T09:19:44;9.10;;;6.40;;
22205;SDS011;11272;50.104;8.754;2022-10-16T09:22:22;10.10;;;6.83;;
22205;SDS011;11272;50.104;8.754;2022-10-16T09:24:54;10.00;;;7.60;;
22205;SDS011;11272;50.104;8.754;2022-10-16T09:27:24;12.33;;;7.70;;
22205;SDS011;11272;50.104;8.754;2022-10-16T09:29:51;9.93;;;7.87;;
22205;SDS011;11272;50.104;8.754;2022-10-16T09:32:20;13.23;;;8.17;;
22205;SDS011;11272;50.104;8.754;2022-10-16T09:34:48;10.70;;;8.00;;
22205;SDS011;11272;50.104;8.754;2022-10-16T09:37:18;15.57;;;8.33;;
22205;SDS011;11272;50.104;8.754;2022-10-16T09:39:49;12.57;;;8.23;;
22205;SDS011;11272;50.104;8.754;2022-10-16T09:42:31;11.80;;;7.97;;
22205;SDS011;11272;50.104;8.754;2022-10-16T09:45:00;11.37;;;8.53;;
22205;SDS011;11272;50.104;8.754;2022-10-16T09:55:32;20.53;;;10.30;;
22205;SDS011;11272;50.104;8.754;2022-10-16T09:57:57;19.93;;;11.40;;
22205;SDS011;11272;50.104;8.754;2022-10-16T10:00:23;18.63;;;11.80;;
22205;SDS011;11272;50.104;8.754;2022-10-16T10:02:50;18.20;;;11.33;;
22205;SDS011;11272;50.104;8.754;2022-10-16T10:05:18;19.77;;;11.87;;
22205;SDS011;11272;50.104;8.754;2022-10-16T10:07:59;19.47;;;12.73;;
22205;SDS011;11272;50.104;8.754;2022-10-16T10:10:32;19.80;;;11.90;;
22205;SDS011;11272;50.104;8.754;2022-10-16T10:12:58;19.97;;;12.47;;
22205;SDS011;11272;50.104;8.754;2022-10-16T10:15:24;18.30;;;11.60;;
22205;SDS011;11272;50.104;8.754;2022-10-16T10:17:56;15.93;;;11.50;;
22205;SDS011;11272;50.104;8.754;2022-10-16T10:22:52;15.40;;;10.60;;
22205;SDS011;11272;50.104;8.754;2022-10-16T10:41:20;14.37;;;9.17;;
22205;SDS011;11272;50.104;8.754;2022-10-16T10:44:16;12.70;;;8.90;;
22205;SDS011;11272;50.104;8.754;2022-10-16T10:49:53;13.07;;;7.97;;
22205;SDS011;11272;50.104;8.754;2022-10-16T10:58:49;7.67;;;6.17;;
22205;SDS011;11272;50.104;8.754;2022-10-16T11:01:31;5.60;;;5.00;;
22205;SDS011;11272;50.104;8.754;2022-10-16T11:06:57;3.67;;;3.30;;
22205;SDS011;11272;50.104;8.754;2022-10-16T11:09:47;5.53;;;3.40;;
22205;SDS011;11272;50.104;8.754;2022-10-16T11:12:21;4.73;;;3.40;;
22205;SDS011;11272;50.104;8.754;2022-10-16T11:15:01;5.13;;;3.17;;
22205;SDS011;11272;50.104;8.754;2022-10-16T11:17:41;3.77;;;3.33;;
22205;SDS011;11272;50.104;8.754;2022-10-16T11:26:01;9.82;;;2.95;;
22205;SDS011;11272;50.104;8.754;2022-10-16T11:28:35;4.15;;;2.75;;
22205;SDS011;11272;50.104;8.754;2022-10-16T11:31:08;5.28;;;2.58;;
22205;SDS011;11272;50.104;8.754;2022-10-16T11:33:43;3.72;;;2.50;;
22205;SDS011;11272;50.104;8.754;2022-10-16T11:41:42;4.18;;;2.28;;
22205;SDS011;11272;50.104;8.754;2022-10-16T11:44:55;5.47;;;2.30;;
22205;SDS011;11272;50.104;8.754;2022-10-16T11:49:30;3.85;;;2.00;;
22205;SDS011;11272;50.104;8.754;2022-10-16T11:52:17;3.80;;;2.03;;
22205;SDS011;11272;50.104;8.754;2022-10-16T11:55:23;4.78;;;1.90;;
22205;SDS011;11272;50.104;8.754;2022-10-16T11:58:01;7.28;;;1.92;;
22205;SDS011;11272;50.104;8.754;2022-10-16T12:06:12;2.13;;;1.90;;
22205;SDS011;11272;50.104;8.754;2022-10-16T12:08:39;2.45;;;1.90;;
22205;SDS011;11272;50.104;8.754;2022-10-16T12:11:09;3.40;;;1.88;;
22205;SDS011;11272;50.104;8.754;2022-10-16T12:13:47;2.83;;;2.03;;
22205;SDS011;11272;50.104;8.754;2022-10-16T12:18:39;4.07;;;2.43;;
22205;SDS011;11272;50.104;8.754;2022-10-16T12:21:09;3.27;;;2.40;;
22205;SDS011;11272;50.104;8.754;2022-10-16T12:23:46;4.40;;;2.03;;
22205;SDS011;11272;50.104;8.754;2022-10-16T12:26:14;4.10;;;2.00;;
22205;SDS011;11272;50.104;8.754;2022-10-16T12:28:49;2.23;;;1.57;;
22205;SDS011;11272;50.104;8.754;2022-10-16T12:31:16;1.58;;;1.48;;
22205;SDS011;11272;50.104;8.754;2022-10-16T12:33:55;3.30;;;1.50;;
22205;SDS011;11272;50.104;8.754;2022-10-16T12:36:27;1.50;;;1.40;;
22205;SDS011;11272;50.104;8.754;2022-10-16T12:38:55;3.25;;;1.25;;
22205;SDS011;11272;50.104;8.754;2022-10-16T12:41:27;3.17;;;1.20;;
22205;SDS011;11272;50.104;8.754;2022-10-16T12:44:00;4.28;;;1.27;;
22205;SDS011;11272;50.104;8.754;2022-10-16T12:51:39;4.68;;;1.40;;
22205;SDS011;11272;50.104;8.754;2022-10-16T12:54:12;2.40;;;1.30;;
22205;SDS011;11272;50.104;8.754;2022-10-16T13:02:22;3.83;;;1.15;;
22205;SDS011;11272;50.104;8.754;2022-10-16T13:10:40;1.83;;;1.02;;
22205;SDS011;11272;50.104;8.754;2022-10-16T13:22:27;2.93;;;1.10;;
22205;SDS011;11272;50.104;8.754;2022-10-16T13:27:46;3.00;;;1.33;;
22205;SDS011;11272;50.104;8.754;2022-10-16T13:30:42;2.03;;;1.17;;
22205;SDS011;11272;50.104;8.754;2022-10-16T13:33:16;1.00;;;1.00;;
22205;SDS011;11272;50.104;8.754;2022-10-16T13:35:49;1.20;;;1.10;;
22205;SDS011;11272;50.104;8.754;2022-10-16T13:38:19;2.53;;;1.23;;
22205;SDS011;11272;50.104;8.754;2022-10-16T13:40:53;1.93;;;1.20;;
22205;SDS011;11272;50.104;8.754;2022-10-16T13:43:24;1.57;;;1.30;;
22205;SDS011;11272;50.104;8.754;2022-10-16T13:45:55;1.20;;;1.10;;
22205;SDS011;11272;50.104;8.754;2022-10-16T13:48:27;1.30;;;1.10;;
22205;SDS011;11272;50.104;8.754;2022-10-16T13:51:06;1.53;;;1.10;;
22205;SDS011;11272;50.104;8.754;2022-10-16T13:53:45;1.10;;;1.00;;
22205;SDS011;11272;50.104;8.754;2022-10-16T13:56:14;2.13;;;1.10;;
22205;SDS011;11272;50.104;8.754;2022-10-16T13:58:42;1.40;;;1.00;;
22205;SDS011;11272;50.104;8.754;2022-10-16T14:01:26;2.80;;;1.30;;
22205;SDS011;11272;50.104;8.754;2022-10-16T14:04:00;4.43;;;1.30;;
22205;SDS011;11272;50.104;8.754;2022-10-16T14:06:28;4.53;;;1.43;;
22205;SDS011;11272;50.104;8.754;2022-10-16T14:09:00;1.77;;;1.17;;
22205;SDS011;11272;50.104;8.754;2022-10-16T14:11:31;3.17;;;1.20;;
22205;SDS011;11272;50.104;8.754;2022-10-16T14:13:58;2.60;;;1.50;;
22205;SDS011;11272;50.104;8.754;2022-10-16T14:16:25;3.03;;;1.50;;
22205;SDS011;11272;50.104;8.754;2022-10-16T14:18:58;2.33;;;1.23;;
22205;SDS011;11272;50.104;8.754;2022-10-16T14:21:27;1.97;;;1.30;;
22205;SDS011;11272;50.104;8.754;2022-10-16T14:23:53;3.17;;;1.63;;
22205;SDS011;11272;50.104;8.754;2022-10-16T14:26:20;1.37;;;1.27;;
22205;SDS011;11272;50.104;8.754;2022-10-16T14:29:00;5.03;;;1.40;;
22205;SDS011;11272;50.104;8.754;2022-10-16T14:31:37;5.13;;;1.30;;
22205;SDS011;11272;50.104;8.754;2022-10-16T14:34:05;1.40;;;1.30;;
22205;SDS011;11272;50.104;8.754;2022-10-16T14:36:49;2.80;;;1.67;;
22205;SDS011;11272;50.104;8.754;2022-10-16T14:39:19;2.93;;;1.20;;
22205;SDS011;11272;50.104;8.754;2022-10-16T14:41:48;2.43;;;1.50;;
22205;SDS011;11272;50.104;8.754;2022-10-16T14:44:15;3.77;;;1.93;;
22205;SDS011;11272;50.104;8.754;2022-10-16T14:46:43;2.67;;;1.50;;
22205;SDS011;11272;50.104;8.754;2022-10-16T14:49:15;1.83;;;1.50;;
22205;SDS011;11272;50.104;8.754;2022-10-16T14:51:45;1.90;;;1.50;;
22205;SDS011;11272;50.104;8.754;2022-10-16T14:54:11;2.93;;;1.60;;
22205;SDS011;11272;50.104;8.754;2022-10-16T14:59:22;2.67;;;2.00;;
22205;SDS011;11272;50.104;8.754;2022-10-16T15:01:52;7.27;;;1.83;;
22205;SDS011;11272;50.104;8.754;2022-10-16T15:04:18;7.77;;;2.30;;
22205;SDS011;11272;50.104;8.754;2022-10-16T15:06:44;2.13;;;1.70;;
22205;SDS011;11272;50.104;8.754;2022-10-16T15:09:10;2.87;;;1.80;;
22205;SDS011;11272;50.104;8.754;2022-10-16T15:11:36;4.13;;;1.93;;
22205;SDS011;11272;50.104;8.754;2022-10-16T15:14:03;5.77;;;2.10;;
22205;SDS011;11272;50.104;8.754;2022-10-16T15:16:29;3.97;;;2.03;;
22205;SDS011;11272;50.104;8.754;2022-10-16T15:18:55;2.40;;;2.10;;
22205;SDS011;11272;50.104;8.754;2022-10-16T15:21:22;3.43;;;2.10;;
22205;SDS011;11272;50.104;8.754;2022-10-16T15:23:51;4.00;;;2.30;;
22205;SDS011;11272;50.104;8.754;2022-10-16T15:26:16;5.33;;;2.33;;
22205;SDS011;11272;50.104;8.754;2022-10-16T15:28:42;6.17;;;2.37;;
22205;SDS011;11272;50.104;8.754;2022-10-16T15:31:07;2.33;;;2.13;;
22205;SDS011;11272;50.104;8.754;2022-10-16T15:33:33;6.83;;;3.27;;
22205;SDS011;11272;50.104;8.754;2022-10-16T15:36:00;3.87;;;1.90;;
22205;SDS011;11272;50.104;8.754;2022-10-16T15:38:27;4.00;;;1.97;;
22205;SDS011;11272;50.104;8.754;2022-10-16T15:40:53;4.00;;;2.60;;
22205;SDS011;11272;50.104;8.754;2022-10-16T15:43:19;5.77;;;2.57;;
22205;SDS011;11272;50.104;8.754;2022-10-16T15:45:47;3.00;;;2.23;;
22205;SDS011;11272;50.104;8.754;2022-10-16T15:48:28;4.70;;;2.70;;
22205;SDS011;11272;50.104;8.754;2022-10-16T15:50:55;5.77;;;2.50;;
22205;SDS011;11272;50.104;8.754;2022-10-16T15:53:20;5.10;;;2.30;;
22205;SDS011;11272;50.104;8.754;2022-10-16T15:55:46;8.57;;;2.33;;
22205;SDS011;11272;50.104;8.754;2022-10-16T15:58:11;3.73;;;3.10;;
22205;SDS011;11272;50.104;8.754;2022-10-16T16:00:37;6.03;;;2.70;;
22205;SDS011;11272;50.104;8.754;2022-10-16T16:03:03;4.10;;;2.77;;
22205;SDS011;11272;50.104;8.754;2022-10-16T16:05:29;6.07;;;2.93;;
22205;SDS011;11272;50.104;8.754;2022-10-16T16:07:54;5.77;;;2.70;;
22205;SDS011;11272;50.104;8.754;2022-10-16T16:10:20;3.07;;;2.77;;
22205;SDS011;11272;50.104;8.754;2022-10-16T16:12:46;6.33;;;2.77;;
22205;SDS011;11272;50.104;8.754;2022-10-16T16:15:20;4.57;;;2.63;;
22205;SDS011;11272;50.104;8.754;2022-10-16T16:17:46;6.37;;;2.80;;
22205;SDS011;11272;50.104;8.754;2022-10-16T16:20:12;4.53;;;2.63;;
22205;SDS011;11272;50.104;8.754;2022-10-16T16:22:38;4.80;;;3.40;;
22205;SDS011;11272;50.104;8.754;2022-10-16T16:25:05;5.80;;;3.03;;
22205;SDS011;11272;50.104;8.754;2022-10-16T16:27:31;6.13;;;3.20;;
22205;SDS011;11272;50.104;8.754;2022-10-16T16:29:58;5.73;;;2.97;;
22205;SDS011;11272;50.104;8.754;2022-10-16T16:32:24;7.13;;;3.10;;
22205;SDS011;11272;50.104;8.754;2022-10-16T16:34:50;7.80;;;4.07;;
22205;SDS011;11272;50.104;8.754;2022-10-16T16:37:15;6.83;;;3.57;;
22205;SDS011;11272;50.104;8.754;2022-10-16T16:39:41;5.03;;;3.20;;
22205;SDS011;11272;50.104;8.754;2022-10-16T16:42:07;7.30;;;3.77;;
22205;SDS011;11272;50.104;8.754;2022-10-16T16:44:33;7.83;;;3.83;;
22205;SDS011;11272;50.104;8.754;2022-10-16T16:47:01;7.43;;;4.03;;
22205;SDS011;11272;50.104;8.754;2022-10-16T16:49:28;8.00;;;4.20;;
22205;SDS011;11272;50.104;8.754;2022-10-16T16:51:53;7.73;;;5.17;;
22205;SDS011;11272;50.104;8.754;2022-10-16T16:54:19;10.60;;;5.97;;
22205;SDS011;11272;50.104;8.754;2022-10-16T16:56:45;8.50;;;6.00;;
22205;SDS011;11272;50.104;8.754;2022-10-16T16:59:12;10.13;;;5.60;;
22205;SDS011;11272;50.104;8.754;2022-10-16T17:01:40;11.40;;;5.30;;
22205;SDS011;11272;50.104;8.754;2022-10-16T17:04:05;7.90;;;5.03;;
22205;SDS011;11272;50.104;8.754;2022-10-16T17:06:31;9.47;;;5.50;;
22205;SDS011;11272;50.104;8.754;2022-10-16T17:08:57;10.77;;;5.63;;
22205;SDS011;11272;50.104;8.754;2022-10-16T17:11:24;9.83;;;6.03;;
22205;SDS011;11272;50.104;8.754;2022-10-16T17:13:51;14.93;;;6.73;;
22205;SDS011;11272;50.104;8.754;2022-10-16T17:16:19;9.63;;;6.97;;
22205;SDS011;11272;50.104;8.754;2022-10-16T17:18:45;9.73;;;6.77;;
22205;SDS011;11272;50.104;8.754;2022-10-16T17:21:11;9.30;;;6.53;;
22205;SDS011;11272;50.104;8.754;2022-10-16T17:23:37;9.67;;;6.93;;
22205;SDS011;11272;50.104;8.754;2022-10-16T17:26:21;10.00;;;6.83;;
22205;SDS011;11272;50.104;8.754;2022-10-16T17:28:49;11.33;;;7.23;;
22205;SDS011;11272;50.104;8.754;2022-10-16T17:31:17;13.37;;;7.43;;
22205;SDS011;11272;50.104;8.754;2022-10-16T17:33:51;12.23;;;7.07;;
22205;SDS011;11272;50.104;8.754;2022-10-16T17:36:18;12.77;;;6.70;;
22205;SDS011;11272;50.104;8.754;2022-10-16T17:38:44;9.13;;;5.80;;
22205;SDS011;11272;50.104;8.754;2022-10-16T17:41:14;11.33;;;5.53;;
22205;SDS011;11272;50.104;8.754;2022-10-16T17:43:45;7.07;;;5.70;;
22205;SDS011;11272;50.104;8.754;2022-10-16T17:46:12;7.90;;;5.10;;
22205;SDS011;11272;50.104;8.754;2022-10-16T17:48:41;8.13;;;5.27;;
22205;SDS011;11272;50.104;8.754;2022-10-16T17:51:10;8.93;;;6.03;;
22205;SDS011;11272;50.104;8.754;2022-10-16T17:53:38;7.93;;;5.33;;
22205;SDS011;11272;50.104;8.754;2022-10-16T17:56:05;9.60;;;6.37;;
22205;SDS011;11272;50.104;8.754;2022-10-16T17:58:32;9.50;;;5.83;;
22205;SDS011;11272;50.104;8.754;2022-10-16T18:00:57;10.93;;;6.57;;
22205;SDS011;11272;50.104;8.754;2022-10-16T18:03:23;10.47;;;6.90;;
22205;SDS011;11272;50.104;8.754;2022-10-16T18:05:51;13.60;;;7.17;;
22205;SDS011;11272;50.104;8.754;2022-10-16T18:08:20;10.27;;;6.87;;
22205;SDS011;11272;50.104;8.754;2022-10-16T18:10:47;10.63;;;6.40;;
22205;SDS011;11272;50.104;8.754;2022-10-16T18:13:14;10.53;;;6.60;;
22205;SDS011;11272;50.104;8.754;2022-10-16T18:15:42;16.67;;;7.20;;
22205;SDS011;11272;50.104;8.754;2022-10-16T18:18:07;11.57;;;6.87;;
22205;SDS011;11272;50.104;8.754;2022-10-16T18:20:33;10.50;;;7.53;;
22205;SDS011;11272;50.104;8.754;2022-10-16T18:22:59;11.10;;;6.73;;
22205;SDS011;11272;50.104;8.754;2022-10-16T18:25:24;9.97;;;6.83;;
22205;SDS011;11272;50.104;8.754;2022-10-16T18:27:53;12.63;;;7.27;;
22205;SDS011;11272;50.104;8.754;2022-10-16T18:30:19;11.30;;;7.20;;
22205;SDS011;11272;50.104;8.754;2022-10-16T18:32:45;10.30;;;7.33;;
22205;SDS011;11272;50.104;8.754;2022-10-16T18:35:10;12.97;;;6.20;;
22205;SDS011;11272;50.104;8.754;2022-10-16T18:37:35;16.43;;;7.20;;
22205;SDS011;11272;50.104;8.754;2022-10-16T18:40:02;10.60;;;7.43;;
22205;SDS011;11272;50.104;8.754;2022-10-16T18:42:28;10.10;;;7.93;;
22205;SDS011;11272;50.104;8.754;2022-10-16T18:44:54;15.37;;;8.73;;
22205;SDS011;11272;50.104;8.754;2022-10-16T18:47:20;11.37;;;7.80;;
22205;SDS011;11272;50.104;8.754;2022-10-16T18:49:48;15.30;;;7.63;;
22205;SDS011;11272;50.104;8.754;2022-10-16T18:52:14;13.03;;;7.37;;
22205;SDS011;11272;50.104;8.754;2022-10-16T18:54:40;11.47;;;7.73;;
22205;SDS011;11272;50.104;8.754;2022-10-16T18:57:05;14.07;;;8.20;;
22205;SDS011;11272;50.104;8.754;2022-10-16T18:59:31;11.90;;;8.40;;
22205;SDS011;11272;50.104;8.754;2022-10-16T19:01:56;13.33;;;8.93;;
22205;SDS011;11272;50.104;8.754;2022-10-16T19:04:22;16.87;;;8.73;;
22205;SDS011;11272;50.104;8.754;2022-10-16T19:06:49;16.87;;;9.00;;
22205;SDS011;11272;50.104;8.754;2022-10-16T19:09:17;17.80;;;9.23;;
22205;SDS011;11272;50.104;8.754;2022-10-16T19:11:43;14.77;;;10.10;;
22205;SDS011;11272;50.104;8.754;2022-10-16T19:14:10;15.73;;;9.40;;
22205;SDS011;11272;50.104;8.754;2022-10-16T19:16:36;15.13;;;10.57;;
22205;SDS011;11272;50.104;8.754;2022-10-16T19:19:03;15.27;;;9.20;;
22205;SDS011;11272;50.104;8.754;2022-10-16T19:21:33;14.03;;;9.23;;
22205;SDS011;11272;50.104;8.754;2022-10-16T19:24:00;15.23;;;9.67;;
22205;SDS011;11272;50.104;8.754;2022-10-16T19:26:28;14.33;;;9.47;;
22205;SDS011;11272;50.104;8.754;2022-10-16T19:28:55;21.00;;;11.67;;
22205;SDS011;11272;50.104;8.754;2022-10-16T19:31:23;13.23;;;9.53;;
22205;SDS011;11272;50.104;8.754;2022-10-16T19:33:51;21.60;;;13.90;;
22205;SDS011;11272;50.104;8.754;2022-10-16T19:36:18;16.70;;;10.47;;
22205;SDS011;11272;50.104;8.754;2022-10-16T19:38:51;12.70;;;9.87;;
22205;SDS011;11272;50.104;8.754;2022-10-16T19:41:18;15.30;;;10.47;;
22205;SDS011;11272;50.104;8.754;2022-10-16T19:43:44;14.27;;;9.73;;
22205;SDS011;11272;50.104;8.754;2022-10-16T19:46:12;18.43;;;9.93;;
22205;SDS011;11272;50.104;8.754;2022-10-16T19:48:42;16.33;;;10.73;;
22205;SDS011;11272;50.104;8.754;2022-10-16T19:51:10;15.10;;;9.60;;
22205;SDS011;11272;50.104;8.754;2022-10-16T19:53:37;15.10;;;9.30;;
22205;SDS011;11272;50.104;8.754;2022-10-16T19:56:13;15.03;;;9.60;;
22205;SDS011;11272;50.104;8.754;2022-10-16T19:58:45;13.97;;;9.47;;
22205;SDS011;11272;50.104;8.754;2022-10-16T20:01:12;16.63;;;10.17;;
22205;SDS011;11272;50.104;8.754;2022-10-16T20:03:39;13.27;;;9.57;;
22205;SDS011;11272;50.104;8.754;2022-10-16T20:06:07;14.10;;;9.80;;
22205;SDS011;11272;50.104;8.754;2022-10-16T20:08:33;15.23;;;9.73;;
22205;SDS011;11272;50.104;8.754;2022-10-16T20:11:01;18.37;;;9.70;;
22205;SDS011;11272;50.104;8.754;2022-10-16T20:13:28;17.03;;;8.77;;
22205;SDS011;11272;50.104;8.754;2022-10-16T20:15:54;14.33;;;8.73;;
22205;SDS011;11272;50.104;8.754;2022-10-16T20:18:20;10.73;;;8.13;;
22205;SDS011;11272;50.104;8.754;2022-10-16T20:20:46;15.93;;;8.37;;
22205;SDS011;11272;50.104;8.754;2022-10-16T20:23:15;12.93;;;8.03;;
22205;SDS011;11272;50.104;8.754;2022-10-16T20:25:42;13.47;;;8.77;;
22205;SDS011;11272;50.104;8.754;2022-10-16T20:28:08;18.97;;;7.90;;
22205;SDS011;11272;50.104;8.754;2022-10-16T20:30:37;14.10;;;8.07;;
22205;SDS011;11272;50.104;8.754;2022-10-16T20:33:05;15.70;;;9.03;;
22205;SDS011;11272;50.104;8.754;2022-10-16T20:35:34;12.50;;;8.43;;
22205;SDS011;11272;50.104;8.754;2022-10-16T20:38:01;19.40;;;8.47;;
22205;SDS011;11272;50.104;8.754;2022-10-16T20:40:26;16.30;;;8.93;;
22205;SDS011;11272;50.104;8.754;2022-10-16T20:42:52;12.33;;;8.37;;
22205;SDS011;11272;50.104;8.754;2022-10-16T20:45:17;14.83;;;8.00;;
22205;SDS011;11272;50.104;8.754;2022-10-16T20:47:42;15.87;;;7.53;;
22205;SDS011;11272;50.104;8.754;2022-10-16T20:50:08;14.20;;;7.50;;
22205;SDS011;11272;50.104;8.754;2022-10-16T20:52:33;10.80;;;8.33;;
22205;SDS011;11272;50.104;8.754;2022-10-16T20:54:59;13.90;;;7.10;;
22205;SDS011;11272;50.104;8.754;2022-10-16T20:57:26;14.10;;;7.80;;
22205;SDS011;11272;50.104;8.754;2022-10-16T20:59:51;14.83;;;8.10;;
22205;SDS011;11272;50.104;8.754;2022-10-16T21:02:20;13.27;;;8.07;;